createdAt,value
2018-07-15T00:02:03.475Z,25.60
2018-07-15T00:04:44.889Z,25.70
2018-07-15T00:10:07.391Z,25.70
2018-07-15T00:12:48.484Z,25.80
2018-07-15T00:15:29.051Z,25.90
2018-07-15T00:18:10.408Z,26.00
2018-07-15T00:20:51.914Z,26.00
2018-07-15T00:23:32.556Z,26.00
2018-07-15T00:26:13.347Z,25.90
2018-07-15T00:28:54.847Z,25.90
2018-07-15T00:31:35.996Z,25.90
2018-07-15T00:34:17.312Z,25.90
2018-07-15T00:36:58.513Z,25.90
2018-07-15T00:39:40.133Z,25.80
2018-07-15T00:42:20.832Z,25.80
2018-07-15T00:45:02.188Z,25.90
2018-07-15T00:47:43.100Z,25.90
2018-07-15T00:50:24.048Z,25.90
2018-07-15T00:53:05.044Z,26.00
2018-07-15T00:55:46.004Z,26.10
2018-07-15T00:58:26.860Z,26.10
2018-07-15T01:01:07.652Z,26.10
2018-07-15T01:03:48.339Z,26.10
2018-07-15T01:06:29.220Z,26.00
2018-07-15T01:09:11.164Z,25.90
2018-07-15T01:11:52.059Z,25.80
2018-07-15T01:14:33.144Z,25.80
2018-07-15T01:17:14.079Z,25.70
2018-07-15T01:19:54.693Z,25.50
2018-07-15T01:22:35.911Z,25.40
2018-07-15T01:25:17.247Z,25.40
2018-07-15T01:27:58.247Z,25.30
2018-07-15T01:30:39.597Z,25.30
2018-07-15T01:33:20.394Z,25.20
2018-07-15T01:36:01.380Z,25.20
2018-07-15T01:38:42.438Z,25.10
2018-07-15T01:41:23.881Z,25.10
2018-07-15T01:44:05.015Z,25.20
2018-07-15T01:46:46.405Z,25.10
2018-07-15T01:49:27.960Z,25.10
2018-07-15T01:52:09.591Z,25.10
2018-07-15T01:54:51.061Z,25.20
2018-07-15T01:57:31.777Z,25.10
2018-07-15T02:00:13.110Z,25.10
2018-07-15T02:02:54.082Z,25.10
2018-07-15T02:05:34.700Z,25.10
2018-07-15T02:08:15.615Z,25.20
2018-07-15T02:10:56.635Z,25.20
2018-07-15T02:13:37.581Z,25.10
2018-07-15T02:16:18.475Z,25.00
2018-07-15T02:18:59.900Z,25.00
2018-07-15T02:21:40.704Z,25.10
2018-07-15T02:24:21.934Z,25.20
2018-07-15T02:27:03.200Z,25.20
2018-07-15T02:29:44.337Z,25.20
2018-07-15T02:32:24.792Z,25.20
2018-07-15T02:35:06.208Z,25.20
2018-07-15T02:37:46.961Z,25.20
2018-07-15T02:40:28.368Z,25.10
2018-07-15T02:45:49.980Z,24.90
2018-07-15T02:48:31.189Z,24.90
2018-07-15T02:53:53.886Z,24.70
2018-07-15T02:56:35.306Z,24.70
2018-07-15T02:59:16.032Z,24.70
2018-07-15T03:01:57.312Z,24.70
2018-07-15T03:04:37.972Z,24.60
2018-07-15T03:07:19.304Z,24.60
2018-07-15T03:12:41.381Z,24.60
2018-07-15T03:15:22.352Z,24.60
2018-07-15T03:18:03.066Z,24.70
2018-07-15T03:20:44.168Z,24.70
2018-07-15T03:23:24.904Z,24.70
2018-07-15T03:26:06.019Z,24.80
2018-07-15T03:28:47.215Z,24.90
2018-07-15T03:31:28.096Z,24.90
2018-07-15T03:34:09.140Z,24.90
2018-07-15T03:36:50.032Z,24.90
2018-07-15T03:39:31.277Z,24.90
2018-07-15T03:42:12.256Z,24.90
2018-07-15T03:44:53.276Z,24.90
2018-07-15T03:47:34.775Z,24.90
2018-07-15T03:50:15.432Z,24.90
2018-07-15T03:52:56.855Z,24.90
2018-07-15T03:55:38.244Z,24.90
2018-07-15T03:58:19.612Z,25.00
2018-07-15T04:01:01.016Z,25.00
2018-07-15T04:03:42.376Z,25.00
2018-07-15T04:06:23.075Z,25.00
2018-07-15T04:09:05.232Z,25.00
2018-07-15T04:11:46.319Z,24.90
2018-07-15T04:14:27.283Z,24.90
2018-07-15T04:17:08.825Z,24.80
2018-07-15T04:19:49.349Z,24.70
2018-07-15T04:22:30.475Z,24.60
2018-07-15T04:25:11.333Z,24.60
2018-07-15T04:27:52.092Z,24.60
2018-07-15T04:30:33.084Z,24.60
2018-07-15T04:33:14.527Z,24.60
2018-07-15T04:35:55.391Z,24.60
2018-07-15T04:38:36.836Z,24.60
2018-07-15T04:41:17.652Z,24.60
2018-07-15T04:43:58.527Z,24.60
2018-07-15T04:46:39.673Z,24.60
2018-07-15T04:49:20.671Z,24.60
2018-07-15T04:52:01.975Z,24.60
2018-07-15T04:54:42.850Z,24.60
2018-07-15T04:57:23.840Z,24.70
2018-07-15T05:00:05.155Z,24.70
2018-07-15T05:02:46.417Z,24.70
2018-07-15T05:05:27.376Z,24.70
2018-07-15T05:08:08.789Z,24.80
2018-07-15T05:10:50.114Z,24.90
2018-07-15T05:13:31.361Z,24.90
2018-07-15T05:16:11.871Z,24.90
2018-07-15T05:18:52.788Z,24.90
2018-07-15T05:21:34.107Z,25.00
2018-07-15T05:24:15.203Z,25.00
2018-07-15T05:26:55.996Z,25.20
2018-07-15T05:29:36.861Z,25.40
2018-07-15T05:32:17.564Z,25.70
2018-07-15T05:35:04.888Z,26.00
2018-07-15T05:37:45.424Z,26.30
2018-07-15T05:40:26.419Z,26.50
2018-07-15T05:43:07.440Z,26.70
2018-07-15T05:45:48.630Z,27.00
2018-07-15T05:48:29.431Z,27.20
2018-07-15T05:51:10.467Z,27.50
2018-07-15T05:53:51.967Z,27.80
2018-07-15T05:56:33.287Z,28.20
2018-07-15T05:59:14.319Z,28.60
2018-07-15T06:01:55.274Z,28.90
2018-07-15T06:04:36.427Z,29.10
2018-07-15T06:07:18.226Z,29.20
2018-07-15T06:09:58.924Z,29.40
2018-07-15T06:12:39.910Z,29.60
2018-07-15T06:15:20.499Z,29.60
2018-07-15T06:18:01.760Z,29.70
2018-07-15T06:20:42.447Z,30.00
2018-07-15T06:23:23.600Z,30.30
2018-07-15T06:26:04.427Z,30.60
2018-07-15T06:28:45.616Z,30.80
2018-07-15T06:34:08.504Z,31.10
2018-07-15T06:36:49.906Z,31.20
2018-07-15T06:39:30.677Z,31.30
2018-07-15T06:42:11.763Z,31.40
2018-07-15T06:44:52.468Z,31.60
2018-07-15T06:47:33.260Z,31.80
2018-07-15T06:50:14.251Z,31.90
2018-07-15T06:52:54.915Z,32.10
2018-07-15T06:55:35.860Z,32.20
2018-07-15T06:58:17.599Z,32.50
2018-07-15T07:00:58.896Z,32.70
2018-07-15T07:03:39.864Z,33.10
2018-07-15T07:06:21.023Z,33.40
2018-07-15T07:09:01.718Z,33.70
2018-07-15T07:11:42.759Z,33.60
2018-07-15T07:14:23.623Z,33.50
2018-07-15T07:17:04.739Z,33.40
2018-07-15T07:19:46.138Z,33.30
2018-07-15T07:22:26.728Z,33.20
2018-07-15T07:27:49.001Z,32.90
2018-07-15T07:30:29.848Z,32.90
2018-07-15T07:33:11.243Z,32.90
2018-07-15T07:35:54.063Z,32.80
2018-07-15T07:38:35.283Z,32.60
2018-07-15T07:41:16.497Z,32.50
2018-07-15T07:43:57.867Z,32.50
2018-07-15T07:46:41.801Z,32.50
2018-07-15T07:49:22.983Z,32.40
2018-07-15T07:52:04.419Z,32.40
2018-07-15T07:54:45.084Z,32.50
2018-07-15T07:57:26.211Z,32.60
2018-07-15T08:00:06.886Z,32.60
2018-07-15T08:02:47.679Z,32.60
2018-07-15T08:05:28.823Z,32.70
2018-07-15T08:08:09.464Z,32.70
2018-07-15T08:16:15.577Z,32.80
2018-07-15T08:18:56.281Z,32.90
2018-07-15T08:21:36.956Z,32.90
2018-07-15T08:24:18.250Z,32.90
2018-07-15T08:26:58.970Z,33.00
2018-07-15T08:29:40.329Z,32.90
2018-07-15T08:32:21.544Z,32.80
2018-07-15T08:35:02.682Z,32.70
2018-07-15T08:37:44.075Z,32.80
2018-07-15T08:40:24.971Z,32.70
2018-07-15T08:43:05.852Z,32.70
2018-07-15T08:45:47.070Z,32.70
2018-07-15T08:51:09.447Z,32.70
2018-07-15T08:53:50.600Z,32.80
2018-07-15T08:56:31.315Z,33.00
2018-07-15T08:59:12.580Z,33.10
2018-07-15T09:01:53.538Z,33.10
2018-07-15T09:04:34.857Z,33.00
2018-07-15T09:07:15.848Z,32.80
2018-07-15T09:09:56.763Z,32.70
2018-07-15T09:12:37.756Z,32.60
2018-07-15T09:15:18.768Z,32.60
2018-07-15T09:17:59.796Z,32.70
2018-07-15T09:20:40.443Z,32.70
2018-07-15T09:23:21.630Z,32.80
2018-07-15T09:26:02.859Z,33.00
2018-07-15T09:28:44.075Z,33.20
2018-07-15T09:31:25.380Z,33.40
2018-07-15T09:34:06.428Z,33.50
2018-07-15T09:36:47.576Z,33.70
2018-07-15T09:39:28.727Z,33.80
2018-07-15T09:42:09.951Z,33.80
2018-07-15T09:44:51.365Z,33.90
2018-07-15T09:47:32.840Z,33.80
2018-07-15T09:50:14.265Z,33.80
2018-07-15T09:52:55.144Z,33.80
2018-07-15T09:55:36.469Z,33.80
2018-07-15T09:58:17.967Z,33.60
2018-07-15T10:00:59.202Z,33.40
2018-07-15T10:03:40.527Z,33.10
2018-07-15T10:06:21.458Z,32.80
2018-07-15T10:09:02.404Z,32.70
2018-07-15T10:11:43.362Z,32.50
2018-07-15T10:14:24.381Z,32.30
2018-07-15T10:17:05.507Z,32.10
2018-07-15T10:19:46.604Z,32.00
2018-07-15T10:22:27.588Z,31.90
2018-07-15T10:25:08.338Z,31.90
2018-07-15T10:27:49.166Z,31.90
2018-07-15T10:30:30.286Z,32.00
2018-07-15T10:33:11.479Z,32.10
2018-07-15T10:35:52.480Z,32.00
2018-07-15T10:38:33.608Z,31.90
2018-07-15T10:41:14.814Z,31.80
2018-07-15T10:43:55.994Z,31.70
2018-07-15T10:46:37.159Z,31.70
2018-07-15T10:49:18.469Z,31.70
2018-07-15T10:51:59.185Z,31.80
2018-07-15T10:54:40.582Z,31.90
2018-07-15T10:57:21.404Z,32.00
2018-07-15T11:00:02.628Z,32.10
2018-07-15T11:02:43.722Z,32.20
2018-07-15T11:05:25.195Z,32.40
2018-07-15T11:10:47.400Z,32.60
2018-07-15T11:13:28.888Z,32.50
2018-07-15T11:16:09.540Z,32.50
2018-07-15T11:18:50.891Z,32.60
2018-07-15T11:21:32.203Z,32.60
2018-07-15T11:24:12.829Z,32.70
2018-07-15T11:26:53.629Z,32.80
2018-07-15T11:29:34.992Z,32.90
2018-07-15T11:32:16.228Z,33.00
2018-07-15T11:34:57.289Z,33.10
2018-07-15T11:37:38.451Z,33.10
2018-07-15T11:45:42.016Z,33.20
2018-07-15T11:48:23.185Z,33.20
2018-07-15T11:51:04.296Z,33.10
2018-07-15T11:53:45.266Z,33.20
2018-07-15T11:56:26.000Z,33.20
2018-07-15T11:59:07.329Z,33.40
2018-07-15T12:01:48.561Z,33.20
2018-07-15T12:04:29.044Z,33.00
2018-07-15T12:07:10.320Z,32.80
2018-07-15T12:09:51.692Z,32.70
2018-07-15T12:12:32.927Z,32.60
2018-07-15T12:15:14.119Z,32.50
2018-07-15T12:17:55.366Z,32.40
2018-07-15T12:20:36.664Z,32.30
2018-07-15T12:23:17.941Z,32.30
2018-07-15T12:25:59.337Z,32.40
2018-07-15T12:28:40.840Z,32.40
2018-07-15T12:31:21.333Z,32.30
2018-07-15T12:34:02.486Z,32.20
2018-07-15T12:36:43.605Z,32.30
2018-07-15T12:39:24.835Z,32.30
2018-07-15T12:42:05.799Z,32.30
2018-07-15T12:44:46.833Z,32.30
2018-07-15T12:47:27.736Z,32.40
2018-07-15T12:50:08.959Z,32.40
2018-07-15T12:52:50.202Z,32.50
2018-07-15T12:58:12.460Z,32.60
2018-07-15T13:00:53.636Z,32.70
2018-07-15T13:03:34.528Z,32.80
2018-07-15T13:06:15.174Z,32.70
2018-07-15T13:08:56.386Z,32.50
2018-07-15T13:11:37.075Z,32.40
2018-07-15T13:14:18.136Z,32.30
2018-07-15T13:16:58.634Z,32.30
2018-07-15T13:19:39.495Z,32.20
2018-07-15T13:22:20.911Z,32.30
2018-07-15T13:25:01.779Z,32.40
2018-07-15T13:27:43.012Z,32.40
2018-07-15T13:30:24.401Z,32.30
2018-07-15T13:33:05.356Z,32.40
2018-07-15T13:38:27.227Z,32.40
2018-07-15T13:41:08.441Z,32.50
2018-07-15T13:43:49.349Z,32.40
2018-07-15T13:46:29.825Z,32.50
2018-07-15T13:49:10.636Z,32.70
2018-07-15T13:51:51.416Z,32.80
2018-07-15T13:54:32.420Z,33.00
2018-07-15T13:57:13.415Z,33.10
2018-07-15T13:59:54.239Z,33.20
2018-07-15T14:05:15.927Z,33.40
2018-07-15T14:07:56.983Z,33.10
2018-07-15T14:10:37.855Z,32.90
2018-07-15T14:13:18.680Z,33.00
2018-07-15T14:15:59.548Z,33.00
2018-07-15T14:18:40.751Z,33.10
2018-07-15T14:21:21.829Z,33.10
2018-07-15T14:24:02.508Z,33.20
2018-07-15T14:26:43.676Z,33.10
2018-07-15T14:29:25.002Z,33.00
2018-07-15T14:37:28.041Z,33.10
2018-07-15T14:40:09.219Z,33.20
2018-07-15T14:42:50.589Z,33.20
2018-07-15T14:45:31.859Z,33.20
2018-07-15T14:48:13.032Z,33.10
2018-07-15T14:50:53.992Z,33.10
2018-07-15T14:53:35.061Z,33.00
2018-07-15T14:56:15.949Z,33.10
2018-07-15T14:58:57.164Z,33.00
2018-07-15T15:01:38.049Z,32.90
2018-07-15T15:04:18.924Z,32.80
2018-07-15T15:06:59.755Z,32.70
2018-07-15T15:09:40.715Z,32.40
2018-07-15T15:12:22.017Z,32.40
2018-07-15T15:15:03.127Z,32.50
2018-07-15T15:17:44.031Z,32.50
2018-07-15T15:20:24.988Z,32.40
2018-07-15T15:23:06.028Z,32.50
2018-07-15T15:25:47.273Z,32.20
2018-07-15T15:28:28.281Z,32.20
2018-07-15T15:31:09.425Z,32.20
2018-07-15T15:33:50.508Z,32.20
2018-07-15T15:36:31.659Z,32.20
2018-07-15T15:39:12.667Z,32.30
2018-07-15T15:41:53.953Z,32.50
2018-07-15T15:44:35.561Z,32.60
2018-07-15T15:47:16.815Z,32.70
2018-07-15T15:49:58.093Z,32.60
2018-07-15T15:52:39.123Z,32.50
2018-07-15T15:55:20.285Z,32.40
2018-07-15T15:58:01.258Z,32.30
2018-07-15T16:00:41.786Z,32.20
2018-07-15T16:03:22.579Z,32.00
2018-07-15T16:06:03.617Z,31.80
2018-07-15T16:08:44.273Z,31.70
2018-07-15T16:11:25.508Z,31.80
2018-07-15T16:14:07.284Z,31.70
2018-07-15T16:16:48.035Z,31.70
2018-07-15T16:19:28.982Z,31.60
2018-07-15T16:22:09.949Z,31.60
2018-07-15T16:27:31.936Z,31.30
2018-07-15T16:30:12.747Z,31.20
2018-07-15T16:32:53.949Z,31.10
2018-07-15T16:35:34.755Z,30.90
2018-07-15T16:38:15.547Z,30.80
2018-07-15T16:40:56.666Z,30.60
2018-07-15T16:43:37.643Z,30.50
2018-07-15T16:46:18.164Z,30.40
2018-07-15T16:48:59.543Z,30.30
2018-07-15T16:51:40.132Z,30.20
2018-07-15T16:54:21.631Z,30.10
2018-07-15T16:57:03.069Z,30.00
2018-07-15T16:59:43.781Z,29.90
2018-07-15T17:02:24.782Z,29.80
2018-07-15T17:05:05.767Z,29.80
2018-07-15T17:07:46.888Z,29.80
2018-07-15T17:10:28.034Z,29.90
2018-07-15T17:13:08.976Z,29.90
2018-07-15T17:15:50.036Z,29.90
2018-07-15T17:18:31.640Z,29.90
2018-07-15T17:21:13.067Z,29.90
2018-07-15T17:23:54.016Z,30.00
2018-07-15T17:26:35.489Z,29.90
2018-07-15T17:29:16.567Z,29.90
2018-07-15T17:31:57.932Z,29.90
2018-07-15T17:34:39.405Z,29.80
2018-07-15T17:37:20.864Z,29.80
2018-07-15T17:40:01.808Z,29.80
2018-07-15T17:42:43.282Z,29.80
2018-07-15T17:45:24.542Z,29.80
2018-07-15T17:48:06.008Z,29.70
2018-07-15T17:50:47.172Z,29.70
2018-07-15T17:53:28.459Z,29.60
2018-07-15T17:56:09.975Z,29.60
2018-07-15T17:58:51.314Z,29.60
2018-07-15T18:01:32.818Z,29.50
2018-07-15T18:04:13.319Z,29.50
2018-07-15T18:06:53.977Z,29.40
2018-07-15T18:09:34.545Z,29.40
2018-07-15T18:12:15.937Z,29.40
2018-07-15T18:14:57.791Z,29.30
2018-07-15T18:17:38.444Z,29.30
2018-07-15T18:23:00.541Z,29.10
2018-07-15T18:25:41.528Z,29.10
2018-07-15T18:28:22.939Z,29.10
2018-07-15T18:31:04.028Z,29.10
2018-07-15T18:33:45.162Z,29.00
2018-07-15T18:36:26.263Z,29.00
2018-07-15T18:39:07.753Z,29.00
2018-07-15T18:41:48.536Z,29.00
2018-07-15T18:44:29.624Z,28.90
2018-07-15T18:47:10.475Z,28.80
2018-07-15T18:49:51.512Z,28.70
2018-07-15T18:52:32.318Z,28.60
2018-07-15T18:55:13.263Z,28.60
2018-07-15T18:57:54.700Z,28.60
2018-07-15T19:00:35.747Z,28.60
2018-07-15T19:03:17.163Z,28.60
2018-07-15T19:05:58.610Z,28.70
2018-07-15T19:08:39.521Z,28.70
2018-07-15T19:11:20.520Z,28.70
2018-07-15T19:14:01.636Z,28.70
2018-07-15T19:16:42.624Z,28.60
2018-07-15T19:19:23.860Z,28.60
2018-07-15T19:22:05.316Z,28.60
2018-07-15T19:24:46.442Z,28.60
2018-07-15T19:27:27.583Z,28.60
2018-07-15T19:30:08.767Z,28.50
2018-07-15T19:32:50.230Z,28.40
2018-07-15T19:35:31.685Z,28.40
2018-07-15T19:38:13.246Z,28.30
2018-07-15T19:40:53.941Z,28.30
2018-07-15T19:43:35.161Z,28.20
2018-07-15T19:46:15.991Z,28.20
2018-07-15T19:48:57.263Z,28.10
2018-07-15T19:51:38.503Z,28.00
2018-07-15T19:54:19.240Z,28.00
2018-07-15T19:57:00.699Z,27.90
2018-07-15T19:59:41.788Z,27.80
2018-07-15T20:02:22.768Z,27.80
2018-07-15T20:05:03.763Z,27.80
2018-07-15T20:07:44.681Z,27.80
2018-07-15T20:10:25.746Z,27.70
2018-07-15T20:13:07.342Z,27.70
2018-07-15T20:15:48.007Z,27.80
2018-07-15T20:18:29.174Z,27.70
2018-07-15T20:21:10.252Z,27.70
2018-07-15T20:23:51.985Z,27.60
2018-07-15T20:26:32.975Z,27.50
2018-07-15T20:29:14.020Z,27.40
2018-07-15T20:31:55.384Z,27.30
2018-07-15T20:34:36.529Z,27.20
2018-07-15T20:37:17.745Z,27.10
2018-07-15T20:39:58.700Z,27.10
2018-07-15T20:42:39.921Z,27.10
2018-07-15T20:45:21.478Z,27.00
2018-07-15T20:48:02.547Z,26.90
2018-07-15T20:50:43.978Z,26.90
2018-07-15T20:53:24.974Z,26.90
2018-07-15T20:56:06.507Z,26.90
2018-07-15T20:58:47.281Z,26.90
2018-07-15T21:01:28.459Z,26.90
2018-07-15T21:04:10.040Z,26.90
2018-07-15T21:06:51.132Z,26.90
2018-07-15T21:09:32.376Z,26.80
2018-07-15T21:12:13.208Z,26.80
2018-07-15T21:14:54.211Z,26.80
2018-07-15T21:17:35.341Z,26.80
2018-07-15T21:20:16.425Z,26.80
2018-07-15T21:22:57.307Z,26.90
2018-07-15T21:25:38.772Z,26.90
2018-07-15T21:28:20.317Z,26.90
2018-07-15T21:31:01.243Z,26.90
2018-07-15T21:33:42.788Z,26.90
2018-07-15T21:36:24.058Z,27.00
2018-07-15T21:41:46.858Z,27.00
2018-07-15T21:44:28.232Z,27.00
2018-07-15T21:47:09.400Z,27.00
2018-07-15T21:49:50.929Z,27.00
2018-07-15T21:52:32.166Z,27.00
2018-07-15T21:55:13.355Z,27.00
2018-07-15T21:57:54.631Z,26.90
2018-07-15T22:00:35.510Z,26.90
2018-07-15T22:03:16.488Z,26.90
2018-07-15T22:05:57.195Z,26.90
2018-07-15T22:08:38.283Z,26.80
2018-07-15T22:11:18.969Z,26.80
2018-07-15T22:14:00.403Z,26.80
2018-07-15T22:16:41.389Z,26.80
2018-07-15T22:19:22.507Z,26.80
2018-07-15T22:22:03.595Z,26.90
2018-07-15T22:24:44.388Z,26.90
2018-07-15T22:27:25.092Z,26.90
2018-07-15T22:30:05.825Z,26.90
2018-07-15T22:32:46.670Z,26.90
2018-07-15T22:35:27.991Z,26.90
2018-07-15T22:38:08.973Z,26.90
2018-07-15T22:40:49.923Z,26.90
2018-07-15T22:43:31.232Z,26.90
2018-07-15T22:46:12.495Z,26.90
2018-07-15T22:48:53.235Z,26.90
2018-07-15T22:51:33.963Z,26.90
2018-07-15T22:54:14.893Z,26.90
2018-07-15T22:56:55.578Z,26.90
2018-07-15T22:59:37.095Z,26.90
2018-07-15T23:02:18.016Z,26.90
2018-07-15T23:04:58.799Z,26.90
2018-07-15T23:07:39.687Z,27.00
2018-07-15T23:10:20.994Z,27.00
2018-07-15T23:13:03.383Z,26.90
2018-07-15T23:15:44.863Z,26.90
2018-07-15T23:18:25.681Z,26.90
2018-07-15T23:21:06.668Z,26.90
2018-07-15T23:23:47.684Z,26.90
2018-07-15T23:26:28.516Z,26.90
2018-07-15T23:29:09.455Z,26.90
2018-07-15T23:31:50.262Z,26.80
2018-07-15T23:34:30.848Z,26.80
2018-07-15T23:39:52.928Z,26.80
2018-07-15T23:42:34.444Z,26.80
2018-07-15T23:45:15.266Z,26.80
2018-07-15T23:47:56.632Z,26.80
2018-07-15T23:50:37.679Z,26.70
2018-07-15T23:53:18.848Z,26.70
2018-07-15T23:56:00.241Z,26.70
2018-07-15T23:58:41.580Z,26.70
